createdAt,value
2022-10-16T00:00:55.403Z,26.46
2022-10-16T00:03:26.564Z,26.61
2022-10-16T00:06:01.143Z,26.73
2022-10-16T00:08:28.598Z,26.48
2022-10-16T00:11:00.845Z,26.15
2022-10-16T00:13:27.402Z,26.27
2022-10-16T00:15:57.139Z,26.32
2022-10-16T00:18:24.130Z,26.49
2022-10-16T00:20:51.039Z,26.26
2022-10-16T00:23:36.952Z,26.38
2022-10-16T00:26:06.511Z,26.19
2022-10-16T00:28:33.384Z,26.33
2022-10-16T00:31:00.009Z,26.58
2022-10-16T00:33:26.986Z,26.28
2022-10-16T00:35:53.515Z,25.87
2022-10-16T00:38:20.113Z,26.34
2022-10-16T00:40:46.645Z,26.49
2022-10-16T00:43:39.105Z,26.17
2022-10-16T00:46:14.410Z,26.19
2022-10-16T00:48:41.954Z,26.19
2022-10-16T00:51:09.630Z,26.35
2022-10-16T00:53:36.465Z,26.27
2022-10-16T00:56:04.167Z,25.99
2022-10-16T00:58:30.768Z,25.90
2022-10-16T01:00:57.434Z,25.90
2022-10-16T01:03:36.626Z,26.11
2022-10-16T01:09:01.466Z,26.01
2022-10-16T01:11:55.044Z,25.77
2022-10-16T01:14:49.028Z,25.85
2022-10-16T01:17:24.494Z,26.00
2022-10-16T01:20:04.029Z,25.84
2022-10-16T01:23:06.560Z,25.85
2022-10-16T01:25:51.777Z,25.62
2022-10-16T01:28:23.104Z,25.62
2022-10-16T01:30:57.278Z,25.33
2022-10-16T01:33:39.201Z,24.97
2022-10-16T01:36:15.838Z,24.97
2022-10-16T01:38:45.764Z,25.25
2022-10-16T01:41:19.544Z,25.46
2022-10-16T01:44:09.470Z,25.66
2022-10-16T01:46:39.086Z,25.69
2022-10-16T01:49:07.300Z,25.53
2022-10-16T01:51:35.927Z,25.22
2022-10-16T01:54:03.465Z,25.24
2022-10-16T01:56:30.670Z,25.05
2022-10-16T01:59:02.650Z,25.08
2022-10-16T02:01:32.143Z,24.97
2022-10-16T02:04:03.150Z,25.34
2022-10-16T02:06:30.493Z,25.45
2022-10-16T02:08:57.432Z,25.53
2022-10-16T02:11:23.978Z,25.35
2022-10-16T02:14:01.818Z,25.29
2022-10-16T02:16:44.516Z,25.19
2022-10-16T02:19:17.914Z,25.41
2022-10-16T02:21:46.995Z,25.22
2022-10-16T02:24:34.884Z,25.25
2022-10-16T02:27:21.875Z,25.02
2022-10-16T02:29:59.604Z,25.10
2022-10-16T02:32:32.119Z,24.99
2022-10-16T02:35:01.090Z,24.89
2022-10-16T02:37:29.435Z,24.88
2022-10-16T02:39:58.081Z,24.90
2022-10-16T02:42:36.704Z,24.91
2022-10-16T02:45:04.570Z,24.39
2022-10-16T02:47:31.111Z,24.49
2022-10-16T02:49:57.923Z,24.68
2022-10-16T02:52:24.779Z,24.38
2022-10-16T02:54:52.480Z,24.60
2022-10-16T02:57:19.270Z,24.10
2022-10-16T02:59:46.674Z,24.03
2022-10-16T03:02:13.315Z,23.92
2022-10-16T03:04:40.431Z,24.10
2022-10-16T03:07:07.241Z,24.05
2022-10-16T03:09:34.092Z,24.05
2022-10-16T03:12:00.797Z,24.23
2022-10-16T03:16:55.153Z,23.26
2022-10-16T03:19:21.889Z,23.72
2022-10-16T03:21:48.435Z,23.55
2022-10-16T03:24:15.275Z,23.77
2022-10-16T03:26:42.104Z,23.70
2022-10-16T03:29:08.762Z,23.77
2022-10-16T03:31:35.322Z,23.63
2022-10-16T03:34:02.206Z,22.89
2022-10-16T03:36:28.754Z,23.16
2022-10-16T03:38:55.289Z,23.55
2022-10-16T03:41:22.033Z,23.61
2022-10-16T03:43:48.601Z,23.52
2022-10-16T03:46:15.140Z,23.03
2022-10-16T03:48:41.735Z,23.33
2022-10-16T03:51:08.334Z,23.08
2022-10-16T03:53:34.935Z,22.74
2022-10-16T03:56:01.503Z,22.97
2022-10-16T03:58:28.048Z,22.89
2022-10-16T04:00:54.678Z,23.34
2022-10-16T04:03:22.286Z,22.44
2022-10-16T04:05:49.503Z,22.95
2022-10-16T04:08:16.322Z,22.97
2022-10-16T04:10:46.577Z,23.03
2022-10-16T04:13:13.615Z,23.09
2022-10-16T04:15:40.324Z,23.08
2022-10-16T04:18:07.392Z,23.91
2022-10-16T04:20:34.567Z,22.98
2022-10-16T04:23:01.515Z,23.26
2022-10-16T04:25:28.278Z,23.18
2022-10-16T04:27:55.208Z,23.49
2022-10-16T04:30:22.662Z,23.15
2022-10-16T04:32:51.086Z,23.53
2022-10-16T04:35:19.223Z,23.49
2022-10-16T04:37:46.204Z,23.63
2022-10-16T04:40:13.697Z,23.76
2022-10-16T04:42:40.307Z,23.77
2022-10-16T04:45:10.934Z,23.88
2022-10-16T04:47:40.082Z,23.55
2022-10-16T04:50:07.167Z,23.89
2022-10-16T04:55:03.583Z,23.37
2022-10-16T04:57:30.851Z,23.87
2022-10-16T04:59:57.950Z,24.23
2022-10-16T05:02:24.538Z,23.77
2022-10-16T05:04:51.391Z,23.97
2022-10-16T05:07:18.339Z,23.75
2022-10-16T05:09:44.903Z,23.98
2022-10-16T05:12:11.555Z,24.12
2022-10-16T05:14:38.406Z,24.15
2022-10-16T05:17:05.211Z,24.15
2022-10-16T05:19:31.789Z,24.05
2022-10-16T05:21:58.372Z,24.21
2022-10-16T05:24:24.994Z,24.25
2022-10-16T05:26:52.405Z,24.28
2022-10-16T05:29:19.098Z,24.16
2022-10-16T05:31:46.182Z,24.40
2022-10-16T05:34:13.362Z,23.81
2022-10-16T05:36:39.899Z,23.93
2022-10-16T05:39:07.191Z,23.33
2022-10-16T05:41:34.276Z,23.05
2022-10-16T05:44:04.575Z,23.52
2022-10-16T05:46:31.098Z,23.01
2022-10-16T05:48:57.834Z,23.84
2022-10-16T05:51:24.656Z,23.75
2022-10-16T05:53:51.239Z,23.98
2022-10-16T05:56:17.810Z,23.92
2022-10-16T05:58:45.519Z,24.03
2022-10-16T06:01:17.969Z,23.66
2022-10-16T06:03:45.306Z,23.62
2022-10-16T06:06:14.498Z,23.35
2022-10-16T06:08:43.214Z,23.86
2022-10-16T06:11:12.160Z,24.20
2022-10-16T06:13:39.951Z,24.15
2022-10-16T06:16:07.114Z,24.49
2022-10-16T06:18:33.673Z,24.26
2022-10-16T06:21:00.677Z,24.29
2022-10-16T06:23:29.396Z,24.59
2022-10-16T06:26:06.005Z,24.79
2022-10-16T06:28:32.625Z,24.22
2022-10-16T06:31:07.281Z,24.61
2022-10-16T06:33:35.832Z,24.07
2022-10-16T06:36:11.650Z,24.12
2022-10-16T06:38:39.862Z,24.63
2022-10-16T06:41:08.027Z,26.03
2022-10-16T06:43:36.244Z,26.59
2022-10-16T06:46:05.618Z,27.40
2022-10-16T06:48:32.593Z,26.91
2022-10-16T06:51:12.482Z,26.33
2022-10-16T06:54:01.125Z,26.40
2022-10-16T06:56:30.981Z,26.72
2022-10-16T06:58:58.204Z,26.48
2022-10-16T07:01:27.039Z,26.44
2022-10-16T07:03:54.773Z,26.68
2022-10-16T07:06:23.469Z,26.76
2022-10-16T07:08:50.795Z,26.14
2022-10-16T07:11:20.250Z,25.98
2022-10-16T07:13:51.056Z,26.09
2022-10-16T07:16:24.191Z,26.45
2022-10-16T07:18:55.104Z,26.23
2022-10-16T07:21:23.528Z,27.03
2022-10-16T07:23:58.935Z,28.17
2022-10-16T07:26:26.750Z,29.06
2022-10-16T07:28:53.580Z,30.39
2022-10-16T07:31:22.069Z,30.12
2022-10-16T07:33:49.368Z,30.33
2022-10-16T07:36:18.755Z,29.36
2022-10-16T07:38:46.835Z,29.20
2022-10-16T07:41:16.203Z,29.00
2022-10-16T07:43:47.929Z,28.98
2022-10-16T07:46:15.458Z,28.64
2022-10-16T07:48:41.992Z,28.21
2022-10-16T07:51:08.647Z,28.91
2022-10-16T07:53:35.408Z,28.85
2022-10-16T07:56:06.693Z,30.39
2022-10-16T07:58:34.644Z,31.32
2022-10-16T08:01:06.216Z,32.50
2022-10-16T08:03:33.279Z,34.35
2022-10-16T08:06:00.887Z,35.53
2022-10-16T08:08:28.303Z,36.86
2022-10-16T08:10:55.374Z,38.14
2022-10-16T08:13:22.234Z,39.12
2022-10-16T08:15:48.926Z,40.08
2022-10-16T08:18:16.800Z,41.00
2022-10-16T08:20:44.949Z,40.05
2022-10-16T08:23:14.906Z,40.81
2022-10-16T08:25:42.702Z,40.96
2022-10-16T08:28:11.034Z,40.95
2022-10-16T08:30:38.436Z,40.94
2022-10-16T08:33:05.113Z,41.11
2022-10-16T08:35:31.717Z,39.26
2022-10-16T08:37:58.279Z,38.96
2022-10-16T08:40:36.777Z,37.40
2022-10-16T08:43:20.081Z,35.69
2022-10-16T08:46:08.626Z,34.22
2022-10-16T08:48:42.267Z,35.45
2022-10-16T08:51:11.897Z,35.16
2022-10-16T08:53:47.735Z,36.28
2022-10-16T08:56:14.283Z,35.27
2022-10-16T08:58:40.873Z,36.09
2022-10-16T09:01:15.048Z,36.06
2022-10-16T09:03:47.667Z,37.13
2022-10-16T09:06:30.756Z,36.15
2022-10-16T09:09:16.017Z,36.04
2022-10-16T09:12:01.085Z,36.26
2022-10-16T09:14:55.292Z,36.66
2022-10-16T09:17:37.184Z,36.55
2022-10-16T09:20:16.198Z,36.79
2022-10-16T09:22:42.757Z,35.99
2022-10-16T09:25:17.766Z,35.99
2022-10-16T09:27:48.828Z,36.57
2022-10-16T09:30:18.781Z,35.78
2022-10-16T09:32:49.225Z,36.22
2022-10-16T09:35:40.789Z,36.36
2022-10-16T09:38:08.129Z,37.00
2022-10-16T09:40:38.186Z,35.86
2022-10-16T09:43:21.230Z,36.31
2022-10-16T09:46:09.075Z,35.79
2022-10-16T09:48:40.100Z,37.27
2022-10-16T09:51:36.455Z,36.06
2022-10-16T09:54:15.223Z,36.86
2022-10-16T09:56:42.573Z,36.25
2022-10-16T09:59:14.572Z,35.63
2022-10-16T10:01:47.360Z,35.68
2022-10-16T10:04:14.350Z,35.89
2022-10-16T10:06:49.942Z,36.30
2022-10-16T10:09:20.532Z,36.83
2022-10-16T10:11:54.930Z,36.11
2022-10-16T10:14:29.813Z,34.57
2022-10-16T10:17:11.331Z,34.78
2022-10-16T10:19:42.437Z,34.46
2022-10-16T10:22:20.604Z,33.50
2022-10-16T10:25:13.294Z,33.37
2022-10-16T10:28:10.650Z,33.37
2022-10-16T10:31:12.718Z,33.87
2022-10-16T10:34:29.277Z,33.52
2022-10-16T10:37:07.270Z,32.43
2022-10-16T10:39:46.605Z,32.24
2022-10-16T10:42:31.209Z,31.67
2022-10-16T10:45:04.579Z,31.13
2022-10-16T10:48:03.010Z,31.65
2022-10-16T10:50:44.576Z,31.97
2022-10-16T10:53:46.362Z,32.21
2022-10-16T10:56:25.197Z,31.83
2022-10-16T10:58:59.525Z,32.25
2022-10-16T11:01:47.357Z,32.50
2022-10-16T11:04:43.343Z,31.52
2022-10-16T11:07:30.285Z,30.96
2022-10-16T11:10:10.164Z,31.04
2022-10-16T11:12:43.631Z,30.81
2022-10-16T11:15:26.690Z,30.96
2022-10-16T11:18:00.091Z,31.29
2022-10-16T11:20:38.565Z,31.43
2022-10-16T11:23:16.507Z,30.68
2022-10-16T11:25:44.701Z,31.65
2022-10-16T11:28:27.987Z,30.73
2022-10-16T11:31:09.360Z,31.37
2022-10-16T11:33:44.653Z,31.99
2022-10-16T11:36:23.947Z,32.36
2022-10-16T11:39:17.345Z,32.61
2022-10-16T11:41:50.492Z,32.61
2022-10-16T11:44:37.071Z,32.13
2022-10-16T11:47:46.396Z,32.63
2022-10-16T11:50:20.881Z,33.32
2022-10-16T11:53:14.276Z,33.03
2022-10-16T11:55:46.752Z,32.76
2022-10-16T11:58:23.884Z,32.70
2022-10-16T12:01:00.944Z,32.67
2022-10-16T12:03:38.090Z,32.43
2022-10-16T12:06:26.425Z,33.16
2022-10-16T12:08:55.013Z,32.93
2022-10-16T12:11:27.713Z,33.04
2022-10-16T12:14:17.281Z,33.28
2022-10-16T12:16:57.632Z,32.52
2022-10-16T12:19:26.370Z,33.07
2022-10-16T12:21:56.874Z,32.61
2022-10-16T12:24:37.640Z,32.43
2022-10-16T12:27:07.564Z,32.14
2022-10-16T12:29:38.370Z,31.28
2022-10-16T12:32:35.137Z,31.86
2022-10-16T12:35:18.636Z,31.41
2022-10-16T12:37:46.133Z,32.05
2022-10-16T12:40:28.079Z,31.19
2022-10-16T12:42:54.711Z,31.57
2022-10-16T12:45:34.883Z,31.79
2022-10-16T12:48:05.847Z,32.52
2022-10-16T12:50:38.888Z,31.97
2022-10-16T12:53:21.007Z,32.51
2022-10-16T12:56:04.369Z,31.81
2022-10-16T12:58:43.297Z,31.79
2022-10-16T13:01:34.661Z,31.48
2022-10-16T13:04:15.641Z,31.41
2022-10-16T13:06:51.599Z,31.51
2022-10-16T13:09:39.696Z,31.26
2022-10-16T13:12:16.772Z,30.90
2022-10-16T13:15:31.509Z,32.00
2022-10-16T13:18:17.038Z,32.58
2022-10-16T13:20:56.026Z,31.93
2022-10-16T13:23:32.084Z,32.63
2022-10-16T13:26:13.858Z,32.83
2022-10-16T13:28:40.739Z,32.88
2022-10-16T13:31:25.325Z,33.11
2022-10-16T13:33:59.734Z,32.74
2022-10-16T13:36:29.320Z,32.71
2022-10-16T13:39:07.422Z,33.27
2022-10-16T13:41:34.141Z,32.83
2022-10-16T13:44:00.713Z,32.63
2022-10-16T13:46:27.522Z,32.96
2022-10-16T13:49:05.958Z,32.98
2022-10-16T13:51:34.152Z,32.86
2022-10-16T13:54:00.801Z,33.52
2022-10-16T13:56:33.543Z,33.28
2022-10-16T13:59:06.444Z,32.51
2022-10-16T14:01:41.288Z,32.43
2022-10-16T14:04:11.965Z,32.58
2022-10-16T14:06:43.285Z,32.31
2022-10-16T14:09:21.941Z,31.94
2022-10-16T14:11:54.734Z,32.31
2022-10-16T14:14:21.567Z,31.99
2022-10-16T14:16:48.814Z,31.34
2022-10-16T14:19:27.975Z,30.60
2022-10-16T14:21:54.931Z,30.76
2022-10-16T14:24:34.375Z,30.01
2022-10-16T14:27:02.181Z,30.48
2022-10-16T14:29:32.434Z,30.50
2022-10-16T14:32:06.975Z,30.82
2022-10-16T14:34:41.430Z,31.00
2022-10-16T14:37:26.680Z,30.45
2022-10-16T14:39:55.830Z,31.25
2022-10-16T14:42:25.652Z,31.31
2022-10-16T14:44:55.453Z,31.35
2022-10-16T14:47:27.654Z,31.37
2022-10-16T14:49:56.829Z,31.47
2022-10-16T14:52:23.558Z,31.41
2022-10-16T14:54:50.933Z,31.70
2022-10-16T14:57:19.724Z,31.15
2022-10-16T14:59:48.057Z,31.37
2022-10-16T15:02:28.152Z,31.23
2022-10-16T15:04:54.821Z,31.66
2022-10-16T15:07:21.919Z,31.61
2022-10-16T15:09:49.503Z,32.39
2022-10-16T15:12:17.557Z,31.96
2022-10-16T15:14:44.655Z,32.09
2022-10-16T15:17:12.010Z,31.92
2022-10-16T15:19:38.984Z,32.25
2022-10-16T15:22:05.825Z,32.65
2022-10-16T15:24:32.317Z,32.41
2022-10-16T15:26:58.933Z,32.74
2022-10-16T15:29:25.545Z,32.16
2022-10-16T15:31:52.088Z,32.08
2022-10-16T15:34:20.400Z,32.30
2022-10-16T15:36:47.134Z,31.67
2022-10-16T15:39:17.511Z,30.98
2022-10-16T15:41:45.589Z,31.72
2022-10-16T15:44:12.265Z,31.51
2022-10-16T15:46:38.843Z,31.67
2022-10-16T15:49:05.527Z,31.74
2022-10-16T15:51:33.911Z,31.62
2022-10-16T15:54:02.607Z,31.72
2022-10-16T15:56:29.530Z,31.25
2022-10-16T15:58:56.232Z,31.07
2022-10-16T16:01:22.927Z,30.99
2022-10-16T16:03:56.144Z,31.23
2022-10-16T16:06:24.700Z,31.13
2022-10-16T16:08:52.468Z,31.21
2022-10-16T16:11:20.564Z,31.25
2022-10-16T16:13:47.198Z,31.04
2022-10-16T16:16:16.725Z,31.14
2022-10-16T16:18:44.287Z,31.04
2022-10-16T16:21:12.170Z,30.91
2022-10-16T16:23:38.885Z,30.89
2022-10-16T16:26:24.848Z,30.56
2022-10-16T16:28:51.496Z,30.58
2022-10-16T16:31:18.131Z,30.09
2022-10-16T16:33:44.689Z,30.09
2022-10-16T16:36:15.628Z,30.11
2022-10-16T16:38:42.841Z,29.85
2022-10-16T16:41:18.189Z,30.06
2022-10-16T16:43:45.647Z,29.85
2022-10-16T16:46:12.970Z,29.68
2022-10-16T16:48:40.098Z,29.60
2022-10-16T16:51:09.578Z,29.44
2022-10-16T16:53:36.979Z,29.51
2022-10-16T16:56:05.451Z,29.48
2022-10-16T16:58:33.636Z,29.25
2022-10-16T17:01:19.287Z,29.22
2022-10-16T17:03:46.624Z,29.26
2022-10-16T17:06:15.272Z,29.25
2022-10-16T17:08:43.425Z,29.32
2022-10-16T17:11:15.178Z,29.19
2022-10-16T17:13:42.282Z,29.23
2022-10-16T17:16:09.662Z,29.27
2022-10-16T17:18:36.828Z,29.16
2022-10-16T17:21:06.214Z,29.09
2022-10-16T17:23:33.712Z,29.04
2022-10-16T17:26:08.997Z,28.75
2022-10-16T17:28:35.644Z,28.71
2022-10-16T17:31:16.159Z,28.39
2022-10-16T17:33:44.190Z,28.36
2022-10-16T17:36:11.831Z,28.28
2022-10-16T17:38:38.412Z,28.19
2022-10-16T17:41:25.252Z,27.97
2022-10-16T17:43:52.769Z,27.95
2022-10-16T17:46:22.399Z,28.08
2022-10-16T17:48:52.176Z,27.91
2022-10-16T17:51:21.895Z,27.77
2022-10-16T17:53:49.879Z,27.65
2022-10-16T17:56:17.041Z,27.55
2022-10-16T17:58:46.502Z,27.44
2022-10-16T18:01:19.712Z,27.54
2022-10-16T18:03:54.585Z,27.57
2022-10-16T18:06:23.028Z,27.57
2022-10-16T18:08:51.281Z,27.65
2022-10-16T18:11:19.124Z,27.49
2022-10-16T18:13:45.995Z,27.49
2022-10-16T18:16:14.557Z,27.39
2022-10-16T18:18:44.941Z,27.39
2022-10-16T18:21:14.044Z,27.37
2022-10-16T18:23:41.839Z,27.40
2022-10-16T18:26:10.676Z,27.36
2022-10-16T18:28:38.254Z,27.28
2022-10-16T18:31:09.332Z,27.40
2022-10-16T18:33:36.122Z,27.16
2022-10-16T18:36:08.005Z,27.02
2022-10-16T18:38:35.745Z,26.94
2022-10-16T18:41:05.405Z,26.90
2022-10-16T18:43:32.915Z,27.12
2022-10-16T18:46:02.932Z,27.25
2022-10-16T18:48:30.560Z,27.35
2022-10-16T18:51:12.727Z,27.26
2022-10-16T18:53:42.001Z,27.18
2022-10-16T18:56:09.578Z,27.03
2022-10-16T18:58:36.646Z,26.82
2022-10-16T19:01:07.991Z,26.96
2022-10-16T19:03:36.235Z,26.99
2022-10-16T19:06:04.427Z,27.03
2022-10-16T19:08:33.568Z,27.32
2022-10-16T19:11:05.111Z,27.31
2022-10-16T19:13:32.067Z,26.55
2022-10-16T19:16:09.474Z,26.75
2022-10-16T19:18:46.226Z,26.75
2022-10-16T19:21:14.749Z,26.76
2022-10-16T19:23:42.323Z,26.20
2022-10-16T19:26:15.068Z,26.36
2022-10-16T19:28:43.092Z,26.50
2022-10-16T19:31:14.513Z,26.44
2022-10-16T19:33:41.646Z,26.46
2022-10-16T19:36:15.603Z,26.57
2022-10-16T19:38:42.805Z,26.57
2022-10-16T19:41:19.209Z,26.57
2022-10-16T19:43:47.069Z,26.72
2022-10-16T19:46:16.979Z,26.57
2022-10-16T19:48:44.651Z,26.70
2022-10-16T19:51:14.718Z,26.64
2022-10-16T19:53:41.337Z,26.59
2022-10-16T19:56:16.713Z,26.77
2022-10-16T19:58:44.696Z,26.91
2022-10-16T20:01:12.829Z,26.72
2022-10-16T20:03:40.516Z,26.79
2022-10-16T20:06:08.569Z,26.88
2022-10-16T20:08:37.302Z,26.77
2022-10-16T20:11:05.140Z,26.64
2022-10-16T20:13:32.595Z,26.55
2022-10-16T20:15:59.415Z,26.70
2022-10-16T20:18:26.101Z,26.27
2022-10-16T20:20:52.669Z,26.46
2022-10-16T20:23:19.801Z,26.60
2022-10-16T20:25:47.211Z,26.76
2022-10-16T20:28:18.230Z,26.98
2022-10-16T20:30:47.411Z,26.88
2022-10-16T20:33:15.247Z,27.06
2022-10-16T20:35:47.883Z,27.11
2022-10-16T20:38:15.950Z,27.11
2022-10-16T20:40:45.612Z,26.98
2022-10-16T20:43:17.636Z,26.87
2022-10-16T20:45:45.413Z,26.66
2022-10-16T20:48:13.713Z,26.63
2022-10-16T20:50:41.582Z,26.57
2022-10-16T20:53:08.469Z,26.61
2022-10-16T20:55:37.067Z,26.50
2022-10-16T20:58:04.885Z,26.70
2022-10-16T21:00:31.727Z,26.71
2022-10-16T21:02:58.362Z,26.73
2022-10-16T21:05:28.653Z,27.02
2022-10-16T21:07:55.630Z,27.00
2022-10-16T21:10:23.051Z,26.84
2022-10-16T21:12:55.548Z,26.48
2022-10-16T21:15:22.567Z,26.47
2022-10-16T21:17:49.500Z,26.33
2022-10-16T21:20:16.360Z,26.17
2022-10-16T21:22:42.971Z,25.93
2022-10-16T21:25:09.812Z,26.31
2022-10-16T21:27:38.283Z,26.30
2022-10-16T21:30:06.805Z,26.30
2022-10-16T21:32:35.826Z,26.33
2022-10-16T21:35:03.099Z,26.41
2022-10-16T21:37:29.657Z,26.32
2022-10-16T21:39:56.300Z,26.44
2022-10-16T21:42:23.011Z,26.42
2022-10-16T21:44:49.595Z,26.45
2022-10-16T21:47:17.135Z,26.13
2022-10-16T21:49:43.735Z,26.10
2022-10-16T21:52:10.253Z,26.18
2022-10-16T21:54:36.786Z,26.51
2022-10-16T21:59:30.892Z,27.02
2022-10-16T22:01:57.736Z,27.00
2022-10-16T22:04:24.290Z,27.12
2022-10-16T22:06:51.134Z,27.37
2022-10-16T22:09:17.938Z,27.52
2022-10-16T22:11:44.908Z,27.39
2022-10-16T22:14:16.083Z,27.32
2022-10-16T22:16:43.449Z,27.12
2022-10-16T22:19:12.166Z,26.98
2022-10-16T22:21:40.572Z,26.62
2022-10-16T22:24:08.159Z,26.43
2022-10-16T22:26:35.585Z,26.72
2022-10-16T22:29:02.293Z,26.38
2022-10-16T22:31:29.715Z,26.16
2022-10-16T22:34:01.807Z,25.96
2022-10-16T22:36:28.801Z,26.29
2022-10-16T22:38:55.568Z,25.83
2022-10-16T22:41:22.969Z,25.69
2022-10-16T22:43:50.154Z,25.76
2022-10-16T22:46:19.813Z,25.90
2022-10-16T22:48:46.585Z,26.47
2022-10-16T22:51:16.777Z,26.73
2022-10-16T22:53:46.575Z,26.43
2022-10-16T22:56:14.383Z,26.29
2022-10-16T22:58:41.462Z,26.11
2022-10-16T23:01:17.631Z,26.15
2022-10-16T23:03:44.413Z,25.68
2022-10-16T23:06:11.005Z,25.98
2022-10-16T23:08:37.569Z,26.12
2022-10-16T23:11:07.502Z,26.60
2022-10-16T23:13:38.584Z,26.72
2022-10-16T23:16:06.938Z,27.00
2022-10-16T23:18:36.824Z,27.21
2022-10-16T23:21:12.326Z,27.04
2022-10-16T23:23:39.937Z,27.07
2022-10-16T23:26:11.329Z,26.74
2022-10-16T23:28:38.482Z,27.11
2022-10-16T23:31:06.581Z,27.03
2022-10-16T23:33:34.606Z,27.36
2022-10-16T23:36:05.096Z,27.59
2022-10-16T23:38:31.742Z,27.31
2022-10-16T23:40:58.325Z,27.53
2022-10-16T23:43:24.841Z,27.09
2022-10-16T23:45:51.417Z,26.95
2022-10-16T23:48:17.946Z,26.57
2022-10-16T23:50:44.463Z,26.45
2022-10-16T23:53:10.977Z,26.72
2022-10-16T23:55:37.570Z,26.97
2022-10-16T23:58:04.086Z,26.81
